Time;durP1;ratioP1;P1;durP2;ratioP2;P2;SDS_P1;SDS_P2;PMS_P1;PMS_P2;Temp;Humidity;BMP_temperature;BMP_pressure;BME280_temperature;BME280_humidity;BME280_pressure;Samples;Min_cycle;Max_cycle;Signal;HPM_P1;HPM_P2
2021/10/19 00:02:03;;;;;;;20.77;15.40;;;8.70;99.90;;;;;;5051622;28;20199;-88
2021/10/19 00:04:29;;;;;;;21.97;15.60;;;8.80;99.90;;;;;;5050822;28;20704;-89
2021/10/19 00:06:55;;;;;;;16.90;15.10;;;8.90;99.90;;;;;;5048231;28;20224;-88
2021/10/19 00:09:20;;;;;;;22.77;16.17;;;9.10;99.00;;;;;;5050011;28;20204;-90
2021/10/19 00:11:46;;;;;;;24.63;15.70;;;9.10;99.10;;;;;;5014941;28;20952;-91
2021/10/19 00:14:11;;;;;;;23.27;15.43;;;9.20;98.30;;;;;;5012882;28;20756;-90
2021/10/19 00:16:37;;;;;;;19.83;15.07;;;9.10;98.70;;;;;;5039247;28;20188;-88
2021/10/19 00:19:04;;;;;;;55.33;17.57;;;8.90;99.30;;;;;;5045413;28;20185;-90
2021/10/19 00:21:30;;;;;;;41.63;16.77;;;8.80;99.20;;;;;;5041913;28;20271;-90
2021/10/19 00:23:56;;;;;;;46.03;17.03;;;8.80;99.90;;;;;;5057642;28;20212;-88
2021/10/19 00:26:23;;;;;;;18.20;15.10;;;8.90;99.90;;;;;;5059441;28;20245;-87
2021/10/19 00:28:48;;;;;;;17.67;14.90;;;9.00;99.80;;;;;;5049718;28;20200;-88
2021/10/19 00:31:14;;;;;;;16.77;14.90;;;9.20;99.00;;;;;;5048209;28;20299;-89
2021/10/19 00:33:39;;;;;;;17.77;13.73;;;9.30;98.00;;;;;;5032120;28;20204;-89
2021/10/19 00:36:05;;;;;;;20.70;14.73;;;9.30;97.40;;;;;;5033063;28;20274;-90
2021/10/19 00:38:31;;;;;;;23.07;17.40;;;9.30;97.20;;;;;;5032626;28;20864;-90
2021/10/19 00:40:56;;;;;;;24.87;15.73;;;9.20;98.10;;;;;;5049391;28;20224;-89
2021/10/19 00:43:24;;;;;;;19.40;15.43;;;9.10;99.50;;;;;;5032901;28;20708;-87
2021/10/19 00:45:50;;;;;;;31.33;17.77;;;8.80;99.90;;;;;;5048474;28;20216;-89
2021/10/19 00:48:17;;;;;;;99.37;20.87;;;8.80;99.90;;;;;;5030906;28;20200;-89
2021/10/19 00:50:45;;;;;;;62.20;19.00;;;8.60;99.90;;;;;;5050709;28;20192;-90
2021/10/19 00:53:13;;;;;;;34.43;18.70;;;8.60;99.90;;;;;;5047935;28;20591;-89
2021/10/19 00:55:39;;;;;;;54.83;19.77;;;8.60;99.90;;;;;;5030378;28;20557;-89
2021/10/19 00:58:08;;;;;;;28.07;18.80;;;8.70;99.90;;;;;;5033010;28;20234;-90
2021/10/19 01:00:34;;;;;;;24.27;19.07;;;8.70;99.90;;;;;;5049301;28;20572;-88
2021/10/19 01:03:01;;;;;;;70.30;20.50;;;8.70;99.90;;;;;;5050969;28;20204;-89
2021/10/19 01:05:27;;;;;;;29.70;17.83;;;8.70;99.90;;;;;;5070433;28;20197;-86
2021/10/19 01:07:53;;;;;;;69.03;20.83;;;8.80;99.90;;;;;;5058780;28;20188;-89
2021/10/19 01:10:19;;;;;;;40.63;20.13;;;8.80;99.90;;;;;;5062626;28;20449;-87
2021/10/19 01:12:45;;;;;;;50.10;19.80;;;8.70;99.90;;;;;;5061018;28;20214;-89
2021/10/19 01:15:13;;;;;;;44.57;21.03;;;8.70;99.90;;;;;;5038958;28;20184;-89
2021/10/19 01:17:43;;;;;;;43.00;21.50;;;8.60;99.90;;;;;;5047392;28;20191;-87
2021/10/19 01:20:30;;;;;;;24.20;19.33;;;8.70;99.90;;;;;;5029497;28;20188;-87
2021/10/19 01:22:57;;;;;;;20.67;17.80;;;8.70;99.90;;;;;;5033382;28;20214;-90
2021/10/19 01:25:25;;;;;;;27.00;18.30;;;8.90;99.90;;;;;;5050188;28;20212;-88
2021/10/19 01:27:54;;;;;;;45.33;20.40;;;9.00;99.90;;;;;;5030895;28;20263;-87
2021/10/19 01:30:21;;;;;;;21.40;18.43;;;8.90;99.90;;;;;;5050179;28;20198;-90
2021/10/19 01:32:47;;;;;;;27.10;19.97;;;8.90;99.90;;;;;;5051600;28;20222;-87
2021/10/19 01:35:13;;;;;;;23.33;19.47;;;8.90;99.90;;;;;;5029082;28;20196;-91
2021/10/19 01:37:40;;;;;;;30.33;19.03;;;9.00;99.90;;;;;;5039175;28;20187;-90
2021/10/19 01:40:15;;;;;;;25.17;19.70;;;9.10;99.90;;;;;;5049910;28;20204;-88
2021/10/19 01:42:41;;;;;;;23.20;20.03;;;9.20;99.90;;;;;;5048573;28;20673;-87
2021/10/19 01:45:17;;;;;;;27.63;19.43;;;9.20;99.90;;;;;;5051395;28;20223;-91
2021/10/19 01:47:44;;;;;;;22.13;18.53;;;9.10;99.90;;;;;;5053491;28;20201;-88
2021/10/19 01:50:13;;;;;;;21.67;18.93;;;9.10;99.90;;;;;;5053170;28;20187;-88
2021/10/19 01:52:39;;;;;;;26.57;20.43;;;9.30;99.90;;;;;;5044397;28;20208;-90
2021/10/19 01:55:07;;;;;;;23.07;19.33;;;9.40;99.40;;;;;;5049981;28;20205;-88
2021/10/19 01:57:32;;;;;;;25.23;20.37;;;9.50;99.10;;;;;;5036447;28;20185;-90
2021/10/19 01:59:58;;;;;;;32.70;20.90;;;9.50;98.80;;;;;;5053339;28;20677;-88
2021/10/19 02:02:24;;;;;;;22.43;19.70;;;9.50;98.00;;;;;;5050796;28;20732;-88
2021/10/19 02:04:50;;;;;;;21.67;17.87;;;9.50;98.40;;;;;;5040374;28;20266;-88
2021/10/19 02:07:15;;;;;;;21.10;17.57;;;9.50;98.60;;;;;;5057822;28;20279;-86
2021/10/19 02:09:41;;;;;;;17.93;16.10;;;9.50;97.80;;;;;;5031650;28;20193;-89
2021/10/19 02:12:07;;;;;;;17.83;15.47;;;9.50;97.80;;;;;;5039410;28;20369;-88
2021/10/19 02:14:32;;;;;;;23.13;15.97;;;9.40;98.40;;;;;;5053529;28;20216;-86
2021/10/19 02:16:58;;;;;;;26.87;16.57;;;9.20;98.70;;;;;;5051435;28;20201;-88
2021/10/19 02:19:26;;;;;;;20.70;16.23;;;9.30;98.90;;;;;;5043954;28;20198;-89
2021/10/19 02:21:55;;;;;;;17.50;14.90;;;9.30;98.40;;;;;;5034460;28;20197;-89
2021/10/19 02:24:21;;;;;;;26.43;16.97;;;9.30;99.40;;;;;;5053222;28;20216;-89
2021/10/19 02:26:47;;;;;;;18.20;16.33;;;9.30;98.10;;;;;;5048216;28;20265;-89
2021/10/19 02:29:15;;;;;;;18.80;16.47;;;9.20;99.00;;;;;;5042019;28;20672;-89
2021/10/19 02:31:40;;;;;;;16.00;14.33;;;9.20;98.90;;;;;;5054235;28;20216;-89
2021/10/19 02:34:06;;;;;;;15.43;13.93;;;9.20;98.70;;;;;;5052003;28;20370;-89
2021/10/19 02:36:33;;;;;;;15.70;14.10;;;9.20;98.10;;;;;;5048445;28;20197;-89
2021/10/19 02:39:00;;;;;;;15.23;13.67;;;9.30;97.70;;;;;;5035927;28;20196;-88
2021/10/19 02:41:26;;;;;;;14.70;13.20;;;9.30;97.60;;;;;;5050423;28;20263;-89
2021/10/19 02:43:53;;;;;;;17.87;15.50;;;9.20;98.00;;;;;;5035148;28;20224;-89
2021/10/19 02:46:20;;;;;;;16.27;13.47;;;9.10;98.70;;;;;;5063420;28;20219;-87
2021/10/19 02:48:46;;;;;;;15.50;13.43;;;8.90;99.10;;;;;;5046878;28;20177;-88
2021/10/19 02:51:11;;;;;;;14.50;13.00;;;9.00;98.80;;;;;;5042853;28;20216;-88
2021/10/19 02:53:37;;;;;;;16.10;12.67;;;9.00;98.60;;;;;;5038583;28;20246;-88
2021/10/19 02:56:03;;;;;;;14.40;12.40;;;8.90;98.40;;;;;;5055155;28;20184;-89
2021/10/19 02:58:29;;;;;;;23.20;13.23;;;8.90;98.70;;;;;;5052685;28;20192;-89
2021/10/19 03:00:54;;;;;;;15.23;13.63;;;8.80;99.00;;;;;;5025531;28;20212;-88
2021/10/19 03:03:20;;;;;;;13.70;12.33;;;8.80;99.70;;;;;;5036452;28;20291;-88
2021/10/19 03:05:46;;;;;;;16.87;13.53;;;8.70;99.90;;;;;;5033854;28;20192;-89
2021/10/19 03:08:12;;;;;;;13.40;12.03;;;8.70;99.90;;;;;;5025928;28;20207;-89
2021/10/19 03:10:37;;;;;;;21.47;12.53;;;8.70;99.90;;;;;;5052249;28;20193;-86
2021/10/19 03:13:03;;;;;;;13.37;12.03;;;8.70;99.80;;;;;;5070453;28;20242;-88
2021/10/19 03:15:29;;;;;;;13.00;11.70;;;8.60;99.90;;;;;;5054179;28;20180;-88
2021/10/19 03:17:54;;;;;;;16.83;12.77;;;8.80;99.90;;;;;;5040580;28;20219;-89
2021/10/19 03:20:20;;;;;;;15.67;12.93;;;8.80;98.80;;;;;;5070792;28;20188;-88
2021/10/19 03:22:46;;;;;;;14.33;12.77;;;8.70;99.30;;;;;;5061516;28;20216;-89
2021/10/19 03:25:12;;;;;;;13.83;11.90;;;8.70;99.90;;;;;;5039112;28;20192;-87
2021/10/19 03:27:37;;;;;;;13.17;11.57;;;8.70;99.90;;;;;;5056294;28;20191;-87
2021/10/19 03:30:05;;;;;;;13.07;11.33;;;8.90;99.60;;;;;;5072982;28;20208;-87
2021/10/19 03:32:31;;;;;;;14.00;12.60;;;9.10;99.00;;;;;;5060424;28;20224;-88
2021/10/19 03:34:58;;;;;;;14.00;12.50;;;9.00;98.50;;;;;;5047928;28;20737;-88
2021/10/19 03:37:24;;;;;;;13.97;12.57;;;9.10;98.50;;;;;;5049319;28;20733;-89
2021/10/19 03:39:50;;;;;;;13.23;11.93;;;9.10;98.80;;;;;;5017950;28;20226;-90
2021/10/19 03:42:16;;;;;;;14.83;13.33;;;9.30;98.30;;;;;;5034504;28;20669;-89
2021/10/19 03:44:41;;;;;;;14.73;13.33;;;9.20;97.90;;;;;;5068076;28;20216;-88
2021/10/19 03:47:07;;;;;;;17.60;15.47;;;9.20;98.00;;;;;;5052719;28;20247;-88
2021/10/19 03:49:33;;;;;;;15.83;14.30;;;9.10;99.00;;;;;;5068480;28;20223;-88
2021/10/19 03:51:58;;;;;;;15.60;14.00;;;9.20;98.90;;;;;;5067627;28;20216;-88
2021/10/19 03:54:24;;;;;;;14.97;13.57;;;9.20;98.60;;;;;;5055340;28;20219;-88
2021/10/19 03:56:50;;;;;;;16.03;14.53;;;9.20;98.80;;;;;;5040589;28;20653;-88
2021/10/19 03:59:15;;;;;;;15.37;13.80;;;9.10;99.90;;;;;;5051987;28;20193;-88
2021/10/19 04:01:41;;;;;;;15.00;13.50;;;9.20;99.50;;;;;;5030738;28;20268;-89
2021/10/19 04:04:07;;;;;;;17.07;14.73;;;9.30;99.20;;;;;;5043089;28;20283;-89
2021/10/19 04:06:32;;;;;;;16.77;15.00;;;9.30;98.90;;;;;;5021115;28;20190;-89
2021/10/19 04:08:58;;;;;;;15.70;14.10;;;9.40;98.40;;;;;;5031942;28;20662;-89
2021/10/19 04:11:24;;;;;;;16.20;14.50;;;9.50;97.60;;;;;;5031049;28;20220;-89
2021/10/19 04:13:50;;;;;;;16.90;15.13;;;9.50;97.60;;;;;;5032753;28;20209;-89
2021/10/19 04:16:15;;;;;;;15.30;13.70;;;9.60;97.00;;;;;;5033615;28;20196;-89
2021/10/19 04:18:41;;;;;;;15.63;14.00;;;9.60;96.80;;;;;;5046507;28;20205;-88
2021/10/19 04:21:07;;;;;;;15.60;14.00;;;9.70;97.20;;;;;;5030714;28;20199;-88
2021/10/19 04:23:32;;;;;;;16.60;14.90;;;9.70;96.60;;;;;;5033881;28;20298;-89
2021/10/19 04:25:58;;;;;;;14.27;12.83;;;9.70;97.10;;;;;;5044128;28;20196;-88
2021/10/19 04:28:24;;;;;;;15.33;13.73;;;9.80;97.00;;;;;;5022351;28;20205;-90
2021/10/19 04:30:52;;;;;;;16.47;14.77;;;9.80;96.40;;;;;;5041188;28;20205;-88
2021/10/19 04:33:18;;;;;;;15.97;14.43;;;9.80;95.90;;;;;;5048403;28;20228;-88
2021/10/19 04:35:44;;;;;;;17.40;15.60;;;9.90;96.40;;;;;;5009646;28;20196;-90
2021/10/19 04:38:10;;;;;;;16.67;14.97;;;9.80;95.60;;;;;;5051771;28;20681;-89
2021/10/19 04:40:36;;;;;;;14.60;13.20;;;9.70;96.90;;;;;;5052579;28;20194;-90
2021/10/19 04:43:02;;;;;;;15.90;14.40;;;9.80;96.60;;;;;;5034440;28;20209;-89
2021/10/19 04:45:28;;;;;;;16.80;15.10;;;9.80;96.40;;;;;;5043856;28;20187;-88
2021/10/19 04:47:56;;;;;;;16.53;14.93;;;10.00;95.30;;;;;;5070207;28;20250;-86
2021/10/19 04:50:22;;;;;;;16.43;14.73;;;9.90;95.60;;;;;;5066170;28;20270;-87
2021/10/19 04:52:48;;;;;;;15.07;13.47;;;9.90;95.50;;;;;;5043052;28;20237;-88
2021/10/19 04:55:14;;;;;;;14.23;12.43;;;9.90;96.40;;;;;;5029113;28;20183;-89
2021/10/19 04:57:40;;;;;;;15.93;14.43;;;9.80;97.00;;;;;;5044299;28;20268;-89
2021/10/19 05:00:07;;;;;;;14.23;12.83;;;9.70;97.00;;;;;;5043826;28;20200;-89
2021/10/19 05:02:32;;;;;;;15.60;14.10;;;9.70;96.80;;;;;;5035676;28;20231;-89
2021/10/19 05:04:58;;;;;;;15.43;13.93;;;9.70;97.50;;;;;;5032037;28;20203;-89
2021/10/19 05:07:24;;;;;;;16.30;14.60;;;9.80;97.40;;;;;;5029546;28;20558;-89
2021/10/19 05:09:50;;;;;;;21.57;18.77;;;9.70;97.40;;;;;;5029046;28;20195;-88
2021/10/19 05:12:15;;;;;;;32.13;23.20;;;9.80;97.20;;;;;;5050119;28;20738;-88
2021/10/19 05:14:41;;;;;;;26.70;20.83;;;9.80;96.40;;;;;;5046913;28;20224;-87
2021/10/19 05:17:07;;;;;;;19.57;17.50;;;9.60;98.40;;;;;;5061989;28;20200;-88
2021/10/19 05:19:33;;;;;;;17.73;15.93;;;9.30;99.50;;;;;;5049538;28;20683;-89
2021/10/19 05:21:58;;;;;;;17.03;15.23;;;9.20;99.80;;;;;;5049238;28;20696;-88
2021/10/19 05:24:24;;;;;;;16.10;14.53;;;8.90;99.90;;;;;;5029189;28;20215;-89
2021/10/19 05:26:50;;;;;;;15.50;13.90;;;9.00;99.90;;;;;;5033001;28;20537;-88
2021/10/19 05:29:15;;;;;;;13.67;12.27;;;9.10;99.90;;;;;;5046520;28;20286;-88
2021/10/19 05:31:41;;;;;;;14.10;12.50;;;9.20;99.90;;;;;;5048392;28;20262;-88
2021/10/19 05:34:07;;;;;;;14.73;13.13;;;9.30;99.80;;;;;;5031889;28;20208;-89
2021/10/19 05:36:32;;;;;;;14.70;13.30;;;9.20;99.90;;;;;;5030384;28;20193;-89
2021/10/19 05:38:58;;;;;;;13.50;12.20;;;9.30;99.90;;;;;;5049229;28;20611;-88
2021/10/19 05:41:24;;;;;;;13.97;12.63;;;9.30;99.90;;;;;;5031904;28;20213;-88
2021/10/19 05:43:49;;;;;;;13.10;11.67;;;9.30;99.60;;;;;;5050734;28;20251;-89
2021/10/19 05:46:16;;;;;;;12.03;10.67;;;9.30;99.30;;;;;;5029390;28;20756;-88
2021/10/19 05:48:41;;;;;;;12.00;10.80;;;9.40;99.10;;;;;;5049145;28;20275;-89
2021/10/19 05:51:07;;;;;;;11.33;10.23;;;9.60;97.80;;;;;;5013764;28;20252;-89
2021/10/19 05:53:33;;;;;;;12.77;11.47;;;9.80;97.10;;;;;;5047357;28;20212;-89
2021/10/19 05:55:58;;;;;;;14.00;12.70;;;9.90;96.30;;;;;;5015546;28;20306;-90
2021/10/19 05:58:24;;;;;;;12.30;10.67;;;10.00;95.50;;;;;;5033462;28;20296;-89
2021/10/19 06:00:50;;;;;;;12.30;11.07;;;10.00;95.20;;;;;;5031488;28;20198;-89
2021/10/19 06:03:16;;;;;;;11.83;10.73;;;9.90;95.90;;;;;;5050698;28;20331;-88
2021/10/19 06:05:42;;;;;;;17.93;16.13;;;9.90;96.70;;;;;;5026628;28;20241;-88
2021/10/19 06:08:08;;;;;;;13.67;11.40;;;10.10;96.20;;;;;;5018590;28;20200;-88
2021/10/19 06:10:37;;;;;;;12.47;11.27;;;10.10;95.90;;;;;;5042282;28;20205;-89
2021/10/19 06:13:03;;;;;;;12.30;11.10;;;10.10;95.90;;;;;;5019224;28;20233;-89
2021/10/19 06:15:30;;;;;;;12.07;10.67;;;10.10;96.50;;;;;;4999653;28;20222;-89
2021/10/19 06:17:55;;;;;;;12.50;11.07;;;10.00;96.20;;;;;;5020582;28;20203;-88
2021/10/19 06:20:21;;;;;;;11.33;10.23;;;10.10;96.20;;;;;;5044039;28;20198;-89
2021/10/19 06:22:47;;;;;;;13.67;12.37;;;10.20;96.00;;;;;;5036699;28;20565;-89
2021/10/19 06:25:13;;;;;;;14.33;12.97;;;10.10;96.20;;;;;;5034363;28;20199;-88
2021/10/19 06:27:38;;;;;;;16.63;14.10;;;10.00;97.10;;;;;;5038834;28;20709;-89
2021/10/19 06:30:05;;;;;;;14.60;13.20;;;9.80;98.40;;;;;;5046747;28;20259;-89
2021/10/19 06:32:30;;;;;;;14.87;13.43;;;9.70;99.90;;;;;;5040397;28;20218;-88
2021/10/19 06:34:56;;;;;;;15.80;14.20;;;9.80;99.50;;;;;;5062030;28;20244;-88
2021/10/19 06:37:22;;;;;;;18.37;16.57;;;9.80;99.50;;;;;;5061676;28;20240;-89
2021/10/19 06:39:48;;;;;;;19.30;17.27;;;9.90;99.40;;;;;;5065031;28;20227;-89
2021/10/19 06:42:14;;;;;;;18.00;16.23;;;9.90;99.60;;;;;;5063443;28;20201;-89
2021/10/19 06:44:39;;;;;;;18.40;16.50;;;9.80;99.70;;;;;;5055324;28;20215;-89
2021/10/19 06:47:05;;;;;;;17.40;15.57;;;9.80;99.90;;;;;;5027328;28;20203;-89
2021/10/19 06:49:31;;;;;;;16.83;15.13;;;9.90;99.90;;;;;;5047403;28;20202;-89
2021/10/19 06:51:56;;;;;;;16.40;14.37;;;9.80;99.90;;;;;;5039052;28;20770;-89
2021/10/19 06:54:22;;;;;;;15.83;14.33;;;9.90;99.90;;;;;;5038337;28;20577;-89
2021/10/19 06:56:48;;;;;;;16.10;14.50;;;9.80;99.90;;;;;;5001457;28;20224;-88
2021/10/19 06:59:14;;;;;;;16.53;14.83;;;9.80;99.90;;;;;;5044664;28;20188;-89
2021/10/19 07:01:39;;;;;;;15.63;14.07;;;9.80;99.90;;;;;;5044771;28;20549;-89
2021/10/19 07:04:05;;;;;;;13.70;12.33;;;9.70;99.90;;;;;;5040609;28;20228;-88
2021/10/19 07:06:31;;;;;;;14.33;12.83;;;9.70;99.90;;;;;;5043522;28;20935;-88
2021/10/19 07:08:57;;;;;;;17.63;14.30;;;9.70;99.90;;;;;;5024387;28;20599;-88
2021/10/19 07:11:26;;;;;;;13.63;12.33;;;9.60;99.90;;;;;;5023634;28;20216;-88
2021/10/19 07:13:55;;;;;;;12.83;11.50;;;9.60;99.90;;;;;;5025101;28;20215;-88
2021/10/19 07:16:21;;;;;;;13.87;12.47;;;9.60;99.90;;;;;;5041534;28;20181;-88
2021/10/19 07:18:47;;;;;;;12.90;11.70;;;9.60;99.90;;;;;;5042305;28;20687;-88
2021/10/19 07:21:13;;;;;;;12.60;11.50;;;9.50;99.90;;;;;;5046593;28;20602;-88
2021/10/19 07:23:39;;;;;;;13.20;11.90;;;9.60;99.90;;;;;;5045270;28;20717;-88
2021/10/19 07:26:04;;;;;;;13.70;12.50;;;9.70;99.90;;;;;;5039933;28;20219;-88
2021/10/19 07:28:30;;;;;;;13.03;11.83;;;9.90;99.90;;;;;;5018010;28;20197;-88
2021/10/19 07:30:56;;;;;;;12.50;11.30;;;10.00;99.90;;;;;;5051679;28;20222;-88
2021/10/19 07:33:22;;;;;;;13.37;11.97;;;10.10;99.90;;;;;;5035357;28;20219;-88
2021/10/19 07:35:48;;;;;;;15.63;13.33;;;10.20;99.90;;;;;;5031490;28;20189;-88
2021/10/19 07:38:14;;;;;;;14.70;13.40;;;10.20;99.90;;;;;;5049209;28;20188;-87
2021/10/19 07:40:40;;;;;;;14.37;13.07;;;10.20;99.90;;;;;;5048060;28;20285;-87
2021/10/19 07:43:06;;;;;;;15.83;14.23;;;10.40;99.90;;;;;;5051631;28;20308;-87
2021/10/19 07:45:34;;;;;;;17.43;15.63;;;10.30;99.90;;;;;;5023214;28;20217;-87
2021/10/19 07:48:01;;;;;;;19.27;16.00;;;10.20;99.90;;;;;;5046650;28;20231;-87
2021/10/19 07:50:31;;;;;;;18.90;15.73;;;10.20;99.90;;;;;;5048442;28;20212;-87
2021/10/19 07:53:00;;;;;;;18.30;16.13;;;10.30;99.90;;;;;;5050216;28;20270;-88
2021/10/19 07:55:27;;;;;;;19.80;16.07;;;10.20;99.90;;;;;;5050131;28;20188;-87
2021/10/19 07:58:02;;;;;;;20.10;17.87;;;10.20;99.90;;;;;;5054231;28;20212;-87
2021/10/19 08:00:29;;;;;;;20.20;17.97;;;10.20;99.90;;;;;;5023815;28;20194;-87
2021/10/19 08:02:56;;;;;;;20.93;18.73;;;10.10;99.90;;;;;;5050472;28;20209;-87
2021/10/19 08:05:22;;;;;;;20.43;18.33;;;10.10;99.90;;;;;;5050727;28;20188;-87
2021/10/19 08:07:50;;;;;;;21.20;18.83;;;10.10;99.90;;;;;;5033261;28;20223;-88
2021/10/19 08:10:19;;;;;;;19.60;17.37;;;10.10;99.90;;;;;;5051666;28;20188;-87
2021/10/19 08:12:45;;;;;;;19.73;17.63;;;10.30;99.90;;;;;;5043466;28;20267;-87
2021/10/19 08:15:12;;;;;;;19.20;17.33;;;10.40;99.90;;;;;;5039921;28;20566;-86
2021/10/19 08:17:37;;;;;;;19.33;17.33;;;10.50;99.90;;;;;;5051708;28;20434;-88
2021/10/19 08:20:04;;;;;;;17.73;15.93;;;10.50;99.90;;;;;;5041945;28;20205;-87
2021/10/19 08:22:32;;;;;;;18.20;16.30;;;10.60;99.90;;;;;;5024556;28;20812;-87
2021/10/19 08:25:01;;;;;;;17.97;16.17;;;10.50;99.90;;;;;;5035515;28;20190;-87
2021/10/19 08:27:27;;;;;;;16.80;15.10;;;10.60;99.90;;;;;;5052520;28;20279;-88
2021/10/19 08:29:53;;;;;;;18.53;16.57;;;10.70;99.90;;;;;;5056245;28;20245;-87
2021/10/19 08:32:19;;;;;;;17.53;15.73;;;10.60;99.90;;;;;;5031285;28;20222;-87
2021/10/19 08:34:45;;;;;;;17.60;16.00;;;10.60;99.90;;;;;;5043920;28;20207;-87
2021/10/19 08:37:11;;;;;;;15.80;14.20;;;10.60;99.90;;;;;;5045835;28;20186;-87
2021/10/19 08:39:37;;;;;;;16.37;14.63;;;10.80;99.90;;;;;;5023130;28;20241;-87
2021/10/19 08:42:03;;;;;;;16.40;14.90;;;10.80;99.90;;;;;;5033917;28;20195;-87
2021/10/19 08:44:29;;;;;;;13.93;12.70;;;10.90;99.90;;;;;;5030740;28;20223;-88
2021/10/19 08:46:55;;;;;;;14.17;12.97;;;11.00;99.90;;;;;;5047935;28;20702;-88
2021/10/19 08:49:21;;;;;;;14.47;13.13;;;11.20;99.90;;;;;;5032970;28;20321;-87
2021/10/19 08:51:47;;;;;;;13.77;12.53;;;11.50;99.50;;;;;;5023961;28;20331;-87
2021/10/19 08:54:12;;;;;;;14.13;12.67;;;11.60;99.60;;;;;;5042911;28;20253;-87
2021/10/19 08:56:42;;;;;;;13.37;12.07;;;11.80;99.70;;;;;;5050905;28;20595;-87
2021/10/19 08:59:09;;;;;;;14.73;13.43;;;11.80;99.10;;;;;;5047123;28;20263;-87
2021/10/19 09:01:37;;;;;;;14.87;13.50;;;11.90;99.50;;;;;;5027260;28;20198;-87
2021/10/19 09:04:12;;;;;;;12.93;11.70;;;12.00;99.50;;;;;;5048874;28;20246;-87
2021/10/19 09:06:39;;;;;;;13.33;12.13;;;12.20;98.50;;;;;;5029806;28;20188;-86
2021/10/19 09:09:16;;;;;;;14.10;12.90;;;12.40;98.40;;;;;;5064254;28;20184;-86
2021/10/19 09:11:47;;;;;;;14.13;12.70;;;12.40;98.30;;;;;;5054382;28;20214;-87
2021/10/19 09:14:14;;;;;;;17.63;16.03;;;12.30;99.10;;;;;;5045107;28;20703;-87
2021/10/19 09:16:40;;;;;;;15.40;13.93;;;12.30;99.90;;;;;;5046614;28;20270;-86
2021/10/19 09:19:06;;;;;;;14.20;12.93;;;12.40;99.70;;;;;;5063658;28;20204;-87
2021/10/19 09:21:31;;;;;;;14.70;13.40;;;12.40;99.90;;;;;;5060817;28;20201;-87
2021/10/19 09:24:37;;;;;;;14.57;13.07;;;12.50;99.00;;;;;;5041018;28;20222;-87
2021/10/19 09:27:11;;;;;;;13.60;12.20;;;12.70;98.90;;;;;;5043506;28;20199;-87
2021/10/19 09:29:44;;;;;;;14.37;12.87;;;12.70;97.90;;;;;;5047298;28;20660;-88
2021/10/19 09:32:12;;;;;;;13.53;12.23;;;12.70;99.10;;;;;;5042489;28;20409;-88
2021/10/19 09:34:38;;;;;;;13.27;12.03;;;12.80;98.90;;;;;;5050653;28;20204;-88
2021/10/19 09:37:07;;;;;;;13.63;12.33;;;12.80;98.10;;;;;;5048258;28;20283;-87
2021/10/19 09:39:41;;;;;;;13.03;11.77;;;12.90;98.20;;;;;;5047828;28;20203;-88
2021/10/19 09:42:22;;;;;;;30.53;27.93;;;13.10;97.90;;;;;;5047699;28;20193;-87
2021/10/19 09:44:59;;;;;;;37.77;34.23;;;13.20;96.20;;;;;;5050223;28;20222;-87
2021/10/19 09:47:37;;;;;;;16.57;15.07;;;13.40;95.80;;;;;;5048862;28;20241;-88
2021/10/19 09:50:08;;;;;;;15.00;12.83;;;13.40;95.90;;;;;;5049707;28;20235;-88
2021/10/19 09:52:37;;;;;;;13.23;11.93;;;13.30;97.50;;;;;;5039959;28;20213;-89
2021/10/19 09:55:07;;;;;;;14.07;12.67;;;13.00;96.10;;;;;;5036003;28;20191;-87
2021/10/19 09:57:34;;;;;;;14.40;13.00;;;13.10;98.30;;;;;;5032089;28;20203;-86
2021/10/19 10:00:00;;;;;;;14.63;13.33;;;12.90;99.30;;;;;;5046272;28;20203;-87
2021/10/19 10:02:26;;;;;;;13.53;12.37;;;12.80;99.90;;;;;;5045226;28;20267;-87
2021/10/19 10:04:53;;;;;;;14.37;12.93;;;13.10;97.90;;;;;;5046782;28;20223;-87
2021/10/19 10:07:21;;;;;;;14.37;12.97;;;13.20;98.10;;;;;;5054176;28;20199;-88
2021/10/19 10:09:48;;;;;;;14.87;13.27;;;13.20;99.60;;;;;;5037326;28;20193;-87
2021/10/19 10:12:14;;;;;;;13.47;12.17;;;13.20;97.70;;;;;;5061153;28;20250;-87
2021/10/19 10:14:47;;;;;;;14.60;13.10;;;13.30;96.20;;;;;;5052296;28;20239;-88
2021/10/19 10:17:13;;;;;;;14.20;12.87;;;13.20;97.40;;;;;;5070632;28;20192;-87
2021/10/19 10:19:40;;;;;;;13.67;12.27;;;13.30;97.10;;;;;;5054714;28;20192;-86
2021/10/19 10:22:22;;;;;;;13.40;12.00;;;13.20;96.50;;;;;;5070912;28;20230;-87
2021/10/19 10:24:48;;;;;;;14.33;12.77;;;13.40;95.90;;;;;;5068719;28;20210;-88
2021/10/19 10:27:25;;;;;;;13.83;12.53;;;13.30;97.30;;;;;;5066236;28;20180;-87
2021/10/19 10:29:51;;;;;;;13.10;11.30;;;13.40;95.90;;;;;;5039461;28;20204;-86
2021/10/19 10:32:31;;;;;;;13.77;12.47;;;13.40;96.50;;;;;;5051913;28;20278;-88
2021/10/19 10:35:03;;;;;;;13.17;11.87;;;13.50;98.00;;;;;;5051180;28;20663;-88
2021/10/19 10:37:40;;;;;;;13.00;11.70;;;13.40;98.40;;;;;;5058173;28;20205;-88
2021/10/19 10:40:09;;;;;;;12.70;11.50;;;13.50;98.40;;;;;;5067636;28;20193;-87
2021/10/19 10:42:37;;;;;;;13.00;10.90;;;13.50;98.20;;;;;;5071554;28;20172;-87
2021/10/19 10:45:15;;;;;;;12.57;11.10;;;13.70;97.30;;;;;;5052845;28;20252;-87
2021/10/19 10:47:53;;;;;;;11.73;10.73;;;13.60;96.80;;;;;;5057101;28;20193;-88
2021/10/19 10:50:20;;;;;;;11.27;10.23;;;13.80;96.70;;;;;;5029841;28;20336;-88
2021/10/19 10:53:06;;;;;;;12.23;11.13;;;14.00;94.00;;;;;;5031022;28;20236;-88
2021/10/19 10:55:52;;;;;;;11.63;10.43;;;14.10;93.90;;;;;;5053767;28;20249;-88
2021/10/19 10:58:24;;;;;;;11.00;10.00;;;14.20;93.40;;;;;;5054827;28;20188;-88
2021/10/19 11:00:51;;;;;;;11.83;10.70;;;14.20;93.70;;;;;;5036587;28;20203;-88
2021/10/19 11:03:18;;;;;;;10.73;9.83;;;14.20;95.20;;;;;;5052690;28;20242;-88
2021/10/19 11:05:59;;;;;;;10.73;9.73;;;14.30;94.10;;;;;;5053365;28;20265;-89
2021/10/19 11:08:33;;;;;;;9.97;9.07;;;14.50;94.60;;;;;;5058081;28;20203;-88
2021/10/19 11:11:18;;;;;;;10.70;9.70;;;14.70;93.80;;;;;;5053199;28;20199;-88
2021/10/19 11:13:58;;;;;;;9.97;9.13;;;15.00;92.30;;;;;;5020808;28;20239;-88
2021/10/19 11:16:33;;;;;;;9.57;8.77;;;15.10;92.60;;;;;;5060602;28;20275;-87
2021/10/19 11:19:12;;;;;;;11.10;8.93;;;15.10;92.90;;;;;;5044734;28;20189;-88
2021/10/19 11:21:39;;;;;;;10.17;8.50;;;15.30;93.40;;;;;;5054770;28;20288;-88
2021/10/19 11:24:05;;;;;;;9.43;8.73;;;15.60;91.20;;;;;;5036079;28;20220;-89
2021/10/19 11:26:31;;;;;;;8.83;8.03;;;15.60;91.00;;;;;;5056861;28;20201;-88
2021/10/19 11:28:57;;;;;;;8.17;7.37;;;16.00;89.50;;;;;;5045219;28;20212;-89
2021/10/19 11:31:26;;;;;;;8.73;7.83;;;16.40;87.60;;;;;;5054981;28;20220;-89
2021/10/19 11:33:52;;;;;;;8.73;6.40;;;16.70;87.60;;;;;;5054830;28;20227;-88
2021/10/19 11:36:18;;;;;;;7.97;6.33;;;17.30;83.20;;;;;;5035300;28;20198;-88
2021/10/19 11:38:48;;;;;;;6.97;6.27;;;17.90;81.10;;;;;;5055187;28;20280;-88
2021/10/19 11:41:18;;;;;;;6.67;5.97;;;18.00;80.90;;;;;;5018946;28;20298;-89
2021/10/19 11:43:46;;;;;;;9.25;6.22;;;18.20;80.20;;;;;;5050940;28;20264;-89
2021/10/19 11:46:15;;;;;;;6.40;5.90;;;18.40;77.10;;;;;;5062034;28;20199;-89
2021/10/19 11:48:43;;;;;;;6.10;5.60;;;18.30;76.40;;;;;;5059024;28;20230;-88
2021/10/19 11:51:12;;;;;;;6.37;5.83;;;18.30;73.70;;;;;;5066196;28;20202;-87
2021/10/19 11:53:42;;;;;;;6.10;5.60;;;18.00;76.00;;;;;;5061941;28;20683;-89
2021/10/19 11:56:13;;;;;;;5.90;5.40;;;18.00;75.50;;;;;;5042846;28;20214;-89
2021/10/19 11:59:07;;;;;;;6.10;5.37;;;17.90;76.30;;;;;;5054809;28;20202;-89
2021/10/19 12:01:38;;;;;;;6.57;5.97;;;18.00;74.30;;;;;;5038270;28;20188;-89
2021/10/19 12:04:07;;;;;;;6.17;5.63;;;17.80;72.70;;;;;;5034829;28;20211;-89
2021/10/19 12:06:34;;;;;;;5.23;4.83;;;17.70;73.10;;;;;;5051394;28;20181;-89
2021/10/19 12:09:18;;;;;;;5.73;5.23;;;17.80;72.90;;;;;;5051239;28;20781;-89
2021/10/19 12:11:53;;;;;;;5.93;5.33;;;17.80;72.50;;;;;;5034293;28;20224;-89
2021/10/19 12:14:27;;;;;;;5.73;5.10;;;17.80;74.60;;;;;;5022200;28;20217;-89
2021/10/19 12:16:54;;;;;;;8.93;5.57;;;17.70;72.00;;;;;;5035433;28;20191;-89
2021/10/19 12:19:20;;;;;;;5.40;4.90;;;17.70;72.00;;;;;;5051512;28;20268;-89
2021/10/19 12:21:55;;;;;;;5.50;4.90;;;17.50;74.30;;;;;;5052933;28;20207;-89
2021/10/19 12:24:21;;;;;;;6.13;5.53;;;17.60;72.50;;;;;;5030684;28;20208;-88
2021/10/19 12:26:56;;;;;;;6.73;4.97;;;17.70;71.20;;;;;;5049624;28;20189;-88
2021/10/19 12:29:22;;;;;;;5.53;5.03;;;17.70;72.40;;;;;;5034955;28;20260;-89
2021/10/19 12:31:48;;;;;;;5.40;4.90;;;17.60;71.10;;;;;;5036315;28;20263;-89
2021/10/19 12:34:14;;;;;;;7.00;6.13;;;17.60;72.70;;;;;;5034447;28;20211;-88
2021/10/19 12:36:41;;;;;;;6.23;5.60;;;17.40;71.70;;;;;;5042734;28;20201;-89
2021/10/19 12:39:13;;;;;;;5.63;5.07;;;17.50;72.40;;;;;;5065195;28;20177;-89